sensor_id;sensor_type;location;lat;lon;timestamp;P1;durP1;ratioP1;P2;durP2;ratioP2
29294;SDS011;16305;48.566;8.846;2023-04-06T00:00:38;18.63;;;12.53;;
29294;SDS011;16305;48.566;8.846;2023-04-06T00:03:04;16.37;;;11.80;;
29294;SDS011;16305;48.566;8.846;2023-04-06T00:05:30;13.27;;;10.67;;
29294;SDS011;16305;48.566;8.846;2023-04-06T00:07:56;16.47;;;10.57;;
29294;SDS011;16305;48.566;8.846;2023-04-06T00:10:23;12.20;;;9.17;;
29294;SDS011;16305;48.566;8.846;2023-04-06T00:12:48;13.93;;;9.60;;
29294;SDS011;16305;48.566;8.846;2023-04-06T00:15:14;14.97;;;10.30;;
29294;SDS011;16305;48.566;8.846;2023-04-06T00:17:39;14.77;;;10.70;;
29294;SDS011;16305;48.566;8.846;2023-04-06T00:20:05;12.80;;;9.87;;
29294;SDS011;16305;48.566;8.846;2023-04-06T00:22:31;17.70;;;9.70;;
29294;SDS011;16305;48.566;8.846;2023-04-06T00:24:57;14.53;;;10.33;;
29294;SDS011;16305;48.566;8.846;2023-04-06T00:27:23;11.67;;;9.60;;
29294;SDS011;16305;48.566;8.846;2023-04-06T00:29:48;13.70;;;9.33;;
29294;SDS011;16305;48.566;8.846;2023-04-06T00:32:14;12.23;;;9.17;;
29294;SDS011;16305;48.566;8.846;2023-04-06T00:34:39;12.93;;;9.40;;
29294;SDS011;16305;48.566;8.846;2023-04-06T00:37:05;13.07;;;9.57;;
29294;SDS011;16305;48.566;8.846;2023-04-06T00:39:30;13.20;;;9.77;;
29294;SDS011;16305;48.566;8.846;2023-04-06T00:41:56;15.07;;;9.93;;
29294;SDS011;16305;48.566;8.846;2023-04-06T00:44:22;15.07;;;10.17;;
29294;SDS011;16305;48.566;8.846;2023-04-06T00:46:47;14.17;;;9.77;;
29294;SDS011;16305;48.566;8.846;2023-04-06T00:49:13;16.37;;;9.67;;
29294;SDS011;16305;48.566;8.846;2023-04-06T00:51:39;14.50;;;9.40;;
29294;SDS011;16305;48.566;8.846;2023-04-06T00:54:04;14.27;;;10.10;;
29294;SDS011;16305;48.566;8.846;2023-04-06T00:56:30;13.57;;;9.97;;
29294;SDS011;16305;48.566;8.846;2023-04-06T00:58:56;14.70;;;9.70;;
29294;SDS011;16305;48.566;8.846;2023-04-06T01:01:22;14.93;;;10.43;;
29294;SDS011;16305;48.566;8.846;2023-04-06T01:03:49;14.20;;;10.63;;
29294;SDS011;16305;48.566;8.846;2023-04-06T01:06:15;14.23;;;10.73;;
29294;SDS011;16305;48.566;8.846;2023-04-06T01:08:41;19.37;;;11.10;;
29294;SDS011;16305;48.566;8.846;2023-04-06T01:11:06;16.40;;;10.40;;
29294;SDS011;16305;48.566;8.846;2023-04-06T01:13:32;16.37;;;11.47;;
29294;SDS011;16305;48.566;8.846;2023-04-06T01:15:57;16.33;;;11.37;;
29294;SDS011;16305;48.566;8.846;2023-04-06T01:18:26;16.83;;;12.03;;
29294;SDS011;16305;48.566;8.846;2023-04-06T01:20:52;17.00;;;11.53;;
29294;SDS011;16305;48.566;8.846;2023-04-06T01:23:18;20.50;;;12.37;;
29294;SDS011;16305;48.566;8.846;2023-04-06T01:25:43;16.17;;;11.13;;
29294;SDS011;16305;48.566;8.846;2023-04-06T01:28:09;17.80;;;11.93;;
29294;SDS011;16305;48.566;8.846;2023-04-06T01:30:34;16.53;;;11.57;;
29294;SDS011;16305;48.566;8.846;2023-04-06T01:33:00;19.50;;;11.30;;
29294;SDS011;16305;48.566;8.846;2023-04-06T01:35:26;17.13;;;12.13;;
29294;SDS011;16305;48.566;8.846;2023-04-06T01:37:52;16.30;;;12.20;;
29294;SDS011;16305;48.566;8.846;2023-04-06T01:40:18;15.87;;;11.80;;
29294;SDS011;16305;48.566;8.846;2023-04-06T01:42:43;13.20;;;10.77;;
29294;SDS011;16305;48.566;8.846;2023-04-06T01:45:09;18.50;;;11.53;;
29294;SDS011;16305;48.566;8.846;2023-04-06T01:47:35;14.70;;;11.13;;
29294;SDS011;16305;48.566;8.846;2023-04-06T01:50:00;16.67;;;11.00;;
29294;SDS011;16305;48.566;8.846;2023-04-06T01:52:27;17.53;;;11.63;;
29294;SDS011;16305;48.566;8.846;2023-04-06T01:54:53;15.63;;;11.00;;
29294;SDS011;16305;48.566;8.846;2023-04-06T01:57:19;17.33;;;11.73;;
29294;SDS011;16305;48.566;8.846;2023-04-06T01:59:45;16.73;;;11.37;;
29294;SDS011;16305;48.566;8.846;2023-04-06T02:02:10;16.47;;;11.63;;
29294;SDS011;16305;48.566;8.846;2023-04-06T02:04:37;17.50;;;10.97;;
29294;SDS011;16305;48.566;8.846;2023-04-06T02:07:03;14.33;;;10.57;;
29294;SDS011;16305;48.566;8.846;2023-04-06T02:09:29;14.90;;;11.03;;
29294;SDS011;16305;48.566;8.846;2023-04-06T02:11:54;16.60;;;11.33;;
29294;SDS011;16305;48.566;8.846;2023-04-06T02:14:20;14.20;;;11.20;;
29294;SDS011;16305;48.566;8.846;2023-04-06T02:16:46;16.33;;;11.20;;
29294;SDS011;16305;48.566;8.846;2023-04-06T02:19:11;16.67;;;10.73;;
29294;SDS011;16305;48.566;8.846;2023-04-06T02:21:37;16.93;;;11.67;;
29294;SDS011;16305;48.566;8.846;2023-04-06T02:24:02;15.10;;;11.00;;
29294;SDS011;16305;48.566;8.846;2023-04-06T02:26:28;17.90;;;12.20;;
29294;SDS011;16305;48.566;8.846;2023-04-06T02:28:54;16.60;;;11.83;;
29294;SDS011;16305;48.566;8.846;2023-04-06T02:31:19;17.57;;;11.60;;
29294;SDS011;16305;48.566;8.846;2023-04-06T02:33:45;14.73;;;10.73;;
29294;SDS011;16305;48.566;8.846;2023-04-06T02:36:11;17.17;;;11.27;;
29294;SDS011;16305;48.566;8.846;2023-04-06T02:38:36;16.17;;;10.87;;
29294;SDS011;16305;48.566;8.846;2023-04-06T02:41:02;17.03;;;11.80;;
29294;SDS011;16305;48.566;8.846;2023-04-06T02:43:27;19.27;;;12.10;;
29294;SDS011;16305;48.566;8.846;2023-04-06T02:45:53;15.67;;;11.23;;
29294;SDS011;16305;48.566;8.846;2023-04-06T02:48:18;15.63;;;11.40;;
29294;SDS011;16305;48.566;8.846;2023-04-06T02:50:44;17.93;;;11.97;;
29294;SDS011;16305;48.566;8.846;2023-04-06T02:53:09;18.23;;;11.93;;
29294;SDS011;16305;48.566;8.846;2023-04-06T02:55:35;17.97;;;11.67;;
29294;SDS011;16305;48.566;8.846;2023-04-06T02:58:00;19.33;;;13.03;;
29294;SDS011;16305;48.566;8.846;2023-04-06T03:00:26;18.00;;;11.87;;
29294;SDS011;16305;48.566;8.846;2023-04-06T03:02:52;17.43;;;11.30;;
29294;SDS011;16305;48.566;8.846;2023-04-06T03:05:17;20.20;;;11.70;;
29294;SDS011;16305;48.566;8.846;2023-04-06T03:07:43;18.97;;;12.70;;
29294;SDS011;16305;48.566;8.846;2023-04-06T03:10:08;17.80;;;12.27;;
29294;SDS011;16305;48.566;8.846;2023-04-06T03:12:34;18.63;;;12.70;;
29294;SDS011;16305;48.566;8.846;2023-04-06T03:15:00;19.77;;;13.03;;
29294;SDS011;16305;48.566;8.846;2023-04-06T03:17:25;21.10;;;12.67;;
29294;SDS011;16305;48.566;8.846;2023-04-06T03:19:51;18.33;;;12.27;;
29294;SDS011;16305;48.566;8.846;2023-04-06T03:22:16;20.73;;;12.90;;
29294;SDS011;16305;48.566;8.846;2023-04-06T03:24:42;18.57;;;12.43;;
29294;SDS011;16305;48.566;8.846;2023-04-06T03:27:07;16.47;;;12.13;;
29294;SDS011;16305;48.566;8.846;2023-04-06T03:29:33;17.23;;;12.27;;
29294;SDS011;16305;48.566;8.846;2023-04-06T03:31:58;18.23;;;12.37;;
29294;SDS011;16305;48.566;8.846;2023-04-06T03:34:24;17.07;;;11.80;;
29294;SDS011;16305;48.566;8.846;2023-04-06T03:36:49;25.53;;;13.07;;
29294;SDS011;16305;48.566;8.846;2023-04-06T03:39:15;16.80;;;12.13;;
29294;SDS011;16305;48.566;8.846;2023-04-06T03:41:40;18.07;;;13.03;;
29294;SDS011;16305;48.566;8.846;2023-04-06T03:44:06;18.37;;;12.17;;
29294;SDS011;16305;48.566;8.846;2023-04-06T03:46:32;17.40;;;11.67;;
29294;SDS011;16305;48.566;8.846;2023-04-06T03:48:57;17.47;;;12.67;;
29294;SDS011;16305;48.566;8.846;2023-04-06T03:51:23;20.00;;;12.90;;
29294;SDS011;16305;48.566;8.846;2023-04-06T03:53:48;18.93;;;12.83;;
29294;SDS011;16305;48.566;8.846;2023-04-06T03:56:14;18.80;;;12.13;;
29294;SDS011;16305;48.566;8.846;2023-04-06T03:58:39;18.83;;;12.67;;
29294;SDS011;16305;48.566;8.846;2023-04-06T04:01:05;17.57;;;13.00;;
29294;SDS011;16305;48.566;8.846;2023-04-06T04:03:30;22.23;;;13.47;;
29294;SDS011;16305;48.566;8.846;2023-04-06T04:05:56;19.10;;;12.63;;
29294;SDS011;16305;48.566;8.846;2023-04-06T04:08:21;17.83;;;12.37;;
29294;SDS011;16305;48.566;8.846;2023-04-06T04:10:47;17.23;;;12.40;;
29294;SDS011;16305;48.566;8.846;2023-04-06T04:13:12;16.97;;;12.50;;
29294;SDS011;16305;48.566;8.846;2023-04-06T04:15:38;18.63;;;13.07;;
29294;SDS011;16305;48.566;8.846;2023-04-06T04:18:03;19.17;;;12.77;;
29294;SDS011;16305;48.566;8.846;2023-04-06T04:20:29;17.70;;;12.93;;
29294;SDS011;16305;48.566;8.846;2023-04-06T04:22:54;18.93;;;13.30;;
29294;SDS011;16305;48.566;8.846;2023-04-06T04:25:20;18.83;;;13.60;;
29294;SDS011;16305;48.566;8.846;2023-04-06T04:27:45;21.07;;;13.40;;
29294;SDS011;16305;48.566;8.846;2023-04-06T04:30:11;18.90;;;13.83;;
29294;SDS011;16305;48.566;8.846;2023-04-06T04:32:36;18.70;;;13.70;;
29294;SDS011;16305;48.566;8.846;2023-04-06T04:35:02;19.27;;;12.83;;
29294;SDS011;16305;48.566;8.846;2023-04-06T04:37:28;19.67;;;14.00;;
29294;SDS011;16305;48.566;8.846;2023-04-06T04:39:53;21.20;;;13.03;;
29294;SDS011;16305;48.566;8.846;2023-04-06T04:42:19;20.23;;;13.23;;
29294;SDS011;16305;48.566;8.846;2023-04-06T04:44:44;20.87;;;13.87;;
29294;SDS011;16305;48.566;8.846;2023-04-06T04:47:10;20.10;;;13.73;;
29294;SDS011;16305;48.566;8.846;2023-04-06T04:49:35;19.47;;;13.33;;
29294;SDS011;16305;48.566;8.846;2023-04-06T04:52:01;20.53;;;13.47;;
29294;SDS011;16305;48.566;8.846;2023-04-06T04:54:26;20.10;;;13.93;;
29294;SDS011;16305;48.566;8.846;2023-04-06T04:56:52;19.67;;;13.53;;
29294;SDS011;16305;48.566;8.846;2023-04-06T04:59:17;22.10;;;13.77;;
29294;SDS011;16305;48.566;8.846;2023-04-06T05:01:43;20.97;;;12.87;;
29294;SDS011;16305;48.566;8.846;2023-04-06T05:04:08;20.83;;;13.73;;
29294;SDS011;16305;48.566;8.846;2023-04-06T05:06:34;18.47;;;13.27;;
29294;SDS011;16305;48.566;8.846;2023-04-06T05:08:59;21.27;;;13.90;;
29294;SDS011;16305;48.566;8.846;2023-04-06T05:11:25;22.17;;;14.27;;
29294;SDS011;16305;48.566;8.846;2023-04-06T05:13:51;18.90;;;13.23;;
29294;SDS011;16305;48.566;8.846;2023-04-06T05:16:16;23.27;;;13.27;;
29294;SDS011;16305;48.566;8.846;2023-04-06T05:18:42;18.10;;;14.00;;
29294;SDS011;16305;48.566;8.846;2023-04-06T05:21:07;22.07;;;13.77;;
29294;SDS011;16305;48.566;8.846;2023-04-06T05:23:34;21.73;;;14.40;;
29294;SDS011;16305;48.566;8.846;2023-04-06T05:25:59;21.87;;;13.30;;
29294;SDS011;16305;48.566;8.846;2023-04-06T05:28:25;20.00;;;13.57;;
29294;SDS011;16305;48.566;8.846;2023-04-06T05:30:51;20.43;;;12.77;;
29294;SDS011;16305;48.566;8.846;2023-04-06T05:33:17;18.27;;;13.00;;
29294;SDS011;16305;48.566;8.846;2023-04-06T05:35:43;17.27;;;12.87;;
29294;SDS011;16305;48.566;8.846;2023-04-06T05:38:08;19.97;;;12.97;;
29294;SDS011;16305;48.566;8.846;2023-04-06T05:40:37;19.80;;;12.77;;
29294;SDS011;16305;48.566;8.846;2023-04-06T05:43:05;19.37;;;13.00;;
29294;SDS011;16305;48.566;8.846;2023-04-06T05:45:31;21.47;;;13.50;;
29294;SDS011;16305;48.566;8.846;2023-04-06T05:47:57;21.57;;;14.37;;
29294;SDS011;16305;48.566;8.846;2023-04-06T05:50:22;20.00;;;13.70;;
29294;SDS011;16305;48.566;8.846;2023-04-06T05:52:48;21.70;;;14.37;;
29294;SDS011;16305;48.566;8.846;2023-04-06T05:55:13;19.00;;;13.60;;
29294;SDS011;16305;48.566;8.846;2023-04-06T05:57:39;20.77;;;13.87;;
29294;SDS011;16305;48.566;8.846;2023-04-06T06:00:05;19.47;;;13.20;;
29294;SDS011;16305;48.566;8.846;2023-04-06T06:02:33;18.90;;;12.73;;
29294;SDS011;16305;48.566;8.846;2023-04-06T06:04:59;21.30;;;13.97;;
29294;SDS011;16305;48.566;8.846;2023-04-06T06:07:25;20.27;;;13.47;;
29294;SDS011;16305;48.566;8.846;2023-04-06T06:09:50;19.90;;;12.97;;
29294;SDS011;16305;48.566;8.846;2023-04-06T06:12:16;21.60;;;13.07;;
29294;SDS011;16305;48.566;8.846;2023-04-06T06:14:41;19.30;;;13.20;;
29294;SDS011;16305;48.566;8.846;2023-04-06T06:17:07;20.60;;;13.30;;
29294;SDS011;16305;48.566;8.846;2023-04-06T06:19:33;21.07;;;13.30;;
29294;SDS011;16305;48.566;8.846;2023-04-06T06:21:59;21.90;;;13.73;;
29294;SDS011;16305;48.566;8.846;2023-04-06T06:24:27;22.90;;;13.03;;
29294;SDS011;16305;48.566;8.846;2023-04-06T06:26:53;18.50;;;13.00;;
29294;SDS011;16305;48.566;8.846;2023-04-06T06:29:18;20.00;;;13.63;;
29294;SDS011;16305;48.566;8.846;2023-04-06T06:31:44;20.23;;;13.03;;
29294;SDS011;16305;48.566;8.846;2023-04-06T06:34:09;23.30;;;13.13;;
29294;SDS011;16305;48.566;8.846;2023-04-06T06:36:35;20.30;;;13.30;;
29294;SDS011;16305;48.566;8.846;2023-04-06T06:39:01;19.80;;;13.30;;
29294;SDS011;16305;48.566;8.846;2023-04-06T06:41:28;24.33;;;14.93;;
29294;SDS011;16305;48.566;8.846;2023-04-06T06:43:54;20.63;;;14.10;;
29294;SDS011;16305;48.566;8.846;2023-04-06T06:46:20;21.53;;;14.20;;
29294;SDS011;16305;48.566;8.846;2023-04-06T06:48:45;24.30;;;14.43;;
29294;SDS011;16305;48.566;8.846;2023-04-06T06:51:11;21.30;;;14.33;;
29294;SDS011;16305;48.566;8.846;2023-04-06T06:53:37;21.70;;;15.07;;
29294;SDS011;16305;48.566;8.846;2023-04-06T06:56:02;21.97;;;15.30;;
29294;SDS011;16305;48.566;8.846;2023-04-06T06:58:28;23.00;;;15.73;;
29294;SDS011;16305;48.566;8.846;2023-04-06T07:00:57;23.43;;;16.43;;
29294;SDS011;16305;48.566;8.846;2023-04-06T07:03:23;19.90;;;13.47;;
29294;SDS011;16305;48.566;8.846;2023-04-06T07:05:49;22.30;;;12.07;;
29294;SDS011;16305;48.566;8.846;2023-04-06T07:08:18;18.37;;;11.40;;
29294;SDS011;16305;48.566;8.846;2023-04-06T07:10:44;18.07;;;12.23;;
29294;SDS011;16305;48.566;8.846;2023-04-06T07:13:10;15.03;;;10.33;;
29294;SDS011;16305;48.566;8.846;2023-04-06T07:15:36;16.93;;;10.97;;
29294;SDS011;16305;48.566;8.846;2023-04-06T07:18:02;18.10;;;11.10;;
29294;SDS011;16305;48.566;8.846;2023-04-06T07:20:27;19.10;;;13.00;;
29294;SDS011;16305;48.566;8.846;2023-04-06T07:22:53;18.33;;;12.57;;
29294;SDS011;16305;48.566;8.846;2023-04-06T07:25:19;20.17;;;13.47;;
29294;SDS011;16305;48.566;8.846;2023-04-06T07:27:44;15.30;;;10.97;;
29294;SDS011;16305;48.566;8.846;2023-04-06T07:30:10;19.10;;;12.43;;
29294;SDS011;16305;48.566;8.846;2023-04-06T07:32:36;18.13;;;12.83;;
29294;SDS011;16305;48.566;8.846;2023-04-06T07:35:02;16.53;;;12.53;;
29294;SDS011;16305;48.566;8.846;2023-04-06T07:37:28;14.57;;;11.03;;
29294;SDS011;16305;48.566;8.846;2023-04-06T07:39:53;16.87;;;10.93;;
29294;SDS011;16305;48.566;8.846;2023-04-06T07:42:19;15.70;;;11.27;;
29294;SDS011;16305;48.566;8.846;2023-04-06T07:44:44;19.13;;;11.37;;
29294;SDS011;16305;48.566;8.846;2023-04-06T07:47:10;16.33;;;11.93;;
29294;SDS011;16305;48.566;8.846;2023-04-06T07:49:36;16.10;;;11.87;;
29294;SDS011;16305;48.566;8.846;2023-04-06T07:52:02;15.43;;;11.30;;
29294;SDS011;16305;48.566;8.846;2023-04-06T07:54:28;13.77;;;11.53;;
29294;SDS011;16305;48.566;8.846;2023-04-06T07:56:53;17.13;;;11.97;;
29294;SDS011;16305;48.566;8.846;2023-04-06T07:59:19;19.93;;;11.73;;
29294;SDS011;16305;48.566;8.846;2023-04-06T08:01:45;15.43;;;11.63;;
29294;SDS011;16305;48.566;8.846;2023-04-06T08:04:10;15.47;;;11.70;;
29294;SDS011;16305;48.566;8.846;2023-04-06T08:06:36;16.40;;;11.40;;
29294;SDS011;16305;48.566;8.846;2023-04-06T08:09:01;15.33;;;11.10;;
29294;SDS011;16305;48.566;8.846;2023-04-06T08:11:27;14.33;;;11.53;;
29294;SDS011;16305;48.566;8.846;2023-04-06T08:13:54;16.10;;;12.23;;
29294;SDS011;16305;48.566;8.846;2023-04-06T08:16:21;17.57;;;11.30;;
29294;SDS011;16305;48.566;8.846;2023-04-06T08:18:47;16.30;;;11.80;;
29294;SDS011;16305;48.566;8.846;2023-04-06T08:21:12;17.53;;;12.37;;
29294;SDS011;16305;48.566;8.846;2023-04-06T08:23:38;17.93;;;13.07;;
29294;SDS011;16305;48.566;8.846;2023-04-06T08:26:04;15.97;;;12.47;;
29294;SDS011;16305;48.566;8.846;2023-04-06T08:28:29;16.57;;;12.33;;
29294;SDS011;16305;48.566;8.846;2023-04-06T08:30:55;17.63;;;12.23;;
29294;SDS011;16305;48.566;8.846;2023-04-06T08:33:20;19.33;;;12.47;;
29294;SDS011;16305;48.566;8.846;2023-04-06T08:35:46;16.93;;;12.40;;
29294;SDS011;16305;48.566;8.846;2023-04-06T08:38:11;18.67;;;12.27;;
29294;SDS011;16305;48.566;8.846;2023-04-06T08:40:37;17.57;;;11.80;;
29294;SDS011;16305;48.566;8.846;2023-04-06T08:43:03;15.20;;;12.70;;
29294;SDS011;16305;48.566;8.846;2023-04-06T08:45:33;18.20;;;12.53;;
29294;SDS011;16305;48.566;8.846;2023-04-06T08:47:59;15.87;;;12.20;;
29294;SDS011;16305;48.566;8.846;2023-04-06T08:50:26;19.23;;;12.67;;
29294;SDS011;16305;48.566;8.846;2023-04-06T08:52:54;15.40;;;12.23;;
29294;SDS011;16305;48.566;8.846;2023-04-06T08:55:20;21.63;;;14.47;;
29294;SDS011;16305;48.566;8.846;2023-04-06T08:57:47;20.13;;;14.23;;
29294;SDS011;16305;48.566;8.846;2023-04-06T09:00:13;16.07;;;12.40;;
29294;SDS011;16305;48.566;8.846;2023-04-06T09:02:40;24.70;;;13.20;;
29294;SDS011;16305;48.566;8.846;2023-04-06T09:05:08;16.50;;;11.97;;
29294;SDS011;16305;48.566;8.846;2023-04-06T09:07:37;16.00;;;12.00;;
29294;SDS011;16305;48.566;8.846;2023-04-06T09:10:03;13.57;;;10.87;;
29294;SDS011;16305;48.566;8.846;2023-04-06T09:12:31;18.67;;;11.80;;
29294;SDS011;16305;48.566;8.846;2023-04-06T09:14:57;16.40;;;11.90;;
29294;SDS011;16305;48.566;8.846;2023-04-06T09:19:51;13.47;;;11.67;;
29294;SDS011;16305;48.566;8.846;2023-04-06T09:22:17;17.13;;;12.87;;
29294;SDS011;16305;48.566;8.846;2023-04-06T09:24:50;15.70;;;12.53;;
29294;SDS011;16305;48.566;8.846;2023-04-06T09:27:17;19.00;;;12.43;;
29294;SDS011;16305;48.566;8.846;2023-04-06T09:30:02;15.20;;;12.47;;
29294;SDS011;16305;48.566;8.846;2023-04-06T09:32:45;15.60;;;11.87;;
29294;SDS011;16305;48.566;8.846;2023-04-06T09:35:12;15.23;;;12.17;;
29294;SDS011;16305;48.566;8.846;2023-04-06T09:37:37;14.67;;;11.83;;
29294;SDS011;16305;48.566;8.846;2023-04-06T09:40:04;15.60;;;11.80;;
29294;SDS011;16305;48.566;8.846;2023-04-06T09:42:31;15.80;;;11.80;;
29294;SDS011;16305;48.566;8.846;2023-04-06T09:44:56;12.60;;;10.80;;
29294;SDS011;16305;48.566;8.846;2023-04-06T09:47:22;13.53;;;11.03;;
29294;SDS011;16305;48.566;8.846;2023-04-06T09:49:48;13.27;;;10.73;;
29294;SDS011;16305;48.566;8.846;2023-04-06T09:52:15;15.60;;;11.33;;
29294;SDS011;16305;48.566;8.846;2023-04-06T09:54:42;13.10;;;10.43;;
29294;SDS011;16305;48.566;8.846;2023-04-06T09:57:25;14.13;;;9.93;;
29294;SDS011;16305;48.566;8.846;2023-04-06T10:00:13;17.37;;;10.60;;
29294;SDS011;16305;48.566;8.846;2023-04-06T10:02:58;10.67;;;8.20;;
29294;SDS011;16305;48.566;8.846;2023-04-06T10:07:56;11.97;;;8.43;;
29294;SDS011;16305;48.566;8.846;2023-04-06T10:10:24;13.20;;;9.30;;
29294;SDS011;16305;48.566;8.846;2023-04-06T10:12:50;13.43;;;10.13;;
29294;SDS011;16305;48.566;8.846;2023-04-06T10:15:16;13.20;;;10.40;;
29294;SDS011;16305;48.566;8.846;2023-04-06T10:17:43;16.83;;;11.40;;
29294;SDS011;16305;48.566;8.846;2023-04-06T10:20:10;15.07;;;10.17;;
29294;SDS011;16305;48.566;8.846;2023-04-06T10:22:43;12.83;;;10.00;;
29294;SDS011;16305;48.566;8.846;2023-04-06T10:25:28;13.67;;;9.53;;
29294;SDS011;16305;48.566;8.846;2023-04-06T10:30:34;9.70;;;8.50;;
29294;SDS011;16305;48.566;8.846;2023-04-06T10:33:15;10.87;;;8.30;;
29294;SDS011;16305;48.566;8.846;2023-04-06T10:35:42;7.80;;;7.00;;
29294;SDS011;16305;48.566;8.846;2023-04-06T10:38:08;7.77;;;6.40;;
29294;SDS011;16305;48.566;8.846;2023-04-06T10:40:37;8.17;;;7.07;;
29294;SDS011;16305;48.566;8.846;2023-04-06T10:43:10;8.70;;;7.77;;
29294;SDS011;16305;48.566;8.846;2023-04-06T10:45:55;10.13;;;7.70;;
29294;SDS011;16305;48.566;8.846;2023-04-06T10:48:22;10.13;;;6.93;;
29294;SDS011;16305;48.566;8.846;2023-04-06T10:50:49;8.60;;;7.10;;
29294;SDS011;16305;48.566;8.846;2023-04-06T10:53:22;10.77;;;8.43;;
29294;SDS011;16305;48.566;8.846;2023-04-06T10:55:56;11.03;;;8.43;;
29294;SDS011;16305;48.566;8.846;2023-04-06T10:58:25;10.50;;;7.60;;
29294;SDS011;16305;48.566;8.846;2023-04-06T11:00:52;9.87;;;8.10;;
29294;SDS011;16305;48.566;8.846;2023-04-06T11:03:19;9.70;;;7.60;;
29294;SDS011;16305;48.566;8.846;2023-04-06T11:05:46;9.47;;;7.40;;
29294;SDS011;16305;48.566;8.846;2023-04-06T11:08:22;9.23;;;7.73;;
29294;SDS011;16305;48.566;8.846;2023-04-06T11:11:04;9.03;;;7.87;;
29294;SDS011;16305;48.566;8.846;2023-04-06T11:13:38;11.30;;;8.77;;
29294;SDS011;16305;48.566;8.846;2023-04-06T11:16:05;11.33;;;9.10;;
29294;SDS011;16305;48.566;8.846;2023-04-06T11:18:31;10.23;;;8.40;;
29294;SDS011;16305;48.566;8.846;2023-04-06T11:20:56;9.23;;;7.73;;
29294;SDS011;16305;48.566;8.846;2023-04-06T11:23:22;9.60;;;7.57;;
29294;SDS011;16305;48.566;8.846;2023-04-06T11:25:50;10.43;;;7.90;;
29294;SDS011;16305;48.566;8.846;2023-04-06T11:28:16;8.30;;;7.10;;
29294;SDS011;16305;48.566;8.846;2023-04-06T11:30:42;9.23;;;7.40;;
29294;SDS011;16305;48.566;8.846;2023-04-06T11:33:08;10.40;;;8.00;;
29294;SDS011;16305;48.566;8.846;2023-04-06T11:35:33;8.40;;;7.10;;
29294;SDS011;16305;48.566;8.846;2023-04-06T11:37:59;8.50;;;7.20;;
29294;SDS011;16305;48.566;8.846;2023-04-06T11:40:28;10.07;;;7.70;;
29294;SDS011;16305;48.566;8.846;2023-04-06T11:42:55;8.80;;;6.63;;
29294;SDS011;16305;48.566;8.846;2023-04-06T11:45:20;9.07;;;6.93;;
29294;SDS011;16305;48.566;8.846;2023-04-06T11:47:54;9.43;;;7.10;;
29294;SDS011;16305;48.566;8.846;2023-04-06T11:50:21;10.10;;;7.93;;
29294;SDS011;16305;48.566;8.846;2023-04-06T11:52:46;9.60;;;6.77;;
29294;SDS011;16305;48.566;8.846;2023-04-06T11:55:24;7.70;;;6.57;;
29294;SDS011;16305;48.566;8.846;2023-04-06T11:57:50;7.20;;;6.10;;
29294;SDS011;16305;48.566;8.846;2023-04-06T12:00:16;7.20;;;6.50;;
29294;SDS011;16305;48.566;8.846;2023-04-06T12:02:45;9.23;;;7.23;;
29294;SDS011;16305;48.566;8.846;2023-04-06T12:05:11;9.97;;;7.60;;
29294;SDS011;16305;48.566;8.846;2023-04-06T12:07:37;10.13;;;7.70;;
29294;SDS011;16305;48.566;8.846;2023-04-06T12:10:03;8.60;;;7.20;;
29294;SDS011;16305;48.566;8.846;2023-04-06T12:12:29;8.73;;;7.13;;
29294;SDS011;16305;48.566;8.846;2023-04-06T12:14:55;11.20;;;7.17;;
29294;SDS011;16305;48.566;8.846;2023-04-06T12:17:27;7.83;;;6.60;;
29294;SDS011;16305;48.566;8.846;2023-04-06T12:19:53;9.17;;;6.37;;
29294;SDS011;16305;48.566;8.846;2023-04-06T12:22:18;7.40;;;6.60;;
29294;SDS011;16305;48.566;8.846;2023-04-06T12:24:44;6.73;;;6.00;;
29294;SDS011;16305;48.566;8.846;2023-04-06T12:27:09;8.37;;;6.97;;
29294;SDS011;16305;48.566;8.846;2023-04-06T12:29:36;8.43;;;7.03;;
29294;SDS011;16305;48.566;8.846;2023-04-06T12:32:02;7.87;;;6.93;;
29294;SDS011;16305;48.566;8.846;2023-04-06T12:34:28;8.77;;;7.37;;
29294;SDS011;16305;48.566;8.846;2023-04-06T12:36:54;8.83;;;7.00;;
29294;SDS011;16305;48.566;8.846;2023-04-06T12:39:19;10.00;;;6.80;;
29294;SDS011;16305;48.566;8.846;2023-04-06T12:41:46;9.83;;;7.73;;
29294;SDS011;16305;48.566;8.846;2023-04-06T12:44:12;7.70;;;6.90;;
29294;SDS011;16305;48.566;8.846;2023-04-06T12:46:37;9.17;;;7.00;;
29294;SDS011;16305;48.566;8.846;2023-04-06T12:49:03;8.87;;;7.27;;
29294;SDS011;16305;48.566;8.846;2023-04-06T12:51:28;9.20;;;7.37;;
29294;SDS011;16305;48.566;8.846;2023-04-06T12:53:55;8.00;;;7.20;;
29294;SDS011;16305;48.566;8.846;2023-04-06T12:56:21;9.37;;;7.60;;
29294;SDS011;16305;48.566;8.846;2023-04-06T12:58:47;8.83;;;6.53;;
29294;SDS011;16305;48.566;8.846;2023-04-06T13:01:13;10.50;;;7.17;;
29294;SDS011;16305;48.566;8.846;2023-04-06T13:03:39;7.53;;;6.73;;
29294;SDS011;16305;48.566;8.846;2023-04-06T13:06:05;7.50;;;6.37;;
29294;SDS011;16305;48.566;8.846;2023-04-06T13:08:33;9.13;;;7.43;;
29294;SDS011;16305;48.566;8.846;2023-04-06T13:10:59;10.10;;;7.37;;
29294;SDS011;16305;48.566;8.846;2023-04-06T13:13:25;8.07;;;7.00;;
29294;SDS011;16305;48.566;8.846;2023-04-06T13:15:53;7.00;;;6.30;;
29294;SDS011;16305;48.566;8.846;2023-04-06T13:18:20;8.53;;;7.20;;
29294;SDS011;16305;48.566;8.846;2023-04-06T13:20:47;10.23;;;7.03;;
29294;SDS011;16305;48.566;8.846;2023-04-06T13:23:13;8.23;;;7.27;;
29294;SDS011;16305;48.566;8.846;2023-04-06T13:25:39;9.67;;;6.90;;
29294;SDS011;16305;48.566;8.846;2023-04-06T13:28:05;8.50;;;6.60;;
29294;SDS011;16305;48.566;8.846;2023-04-06T13:30:30;9.93;;;7.10;;
29294;SDS011;16305;48.566;8.846;2023-04-06T13:32:56;7.77;;;6.87;;
29294;SDS011;16305;48.566;8.846;2023-04-06T13:35:21;8.73;;;7.83;;
29294;SDS011;16305;48.566;8.846;2023-04-06T13:37:47;9.30;;;7.10;;
29294;SDS011;16305;48.566;8.846;2023-04-06T13:40:13;8.60;;;7.13;;
29294;SDS011;16305;48.566;8.846;2023-04-06T13:42:39;8.43;;;6.87;;
29294;SDS011;16305;48.566;8.846;2023-04-06T13:45:06;7.13;;;6.43;;
29294;SDS011;16305;48.566;8.846;2023-04-06T13:47:32;9.70;;;6.93;;
29294;SDS011;16305;48.566;8.846;2023-04-06T13:49:57;8.13;;;6.60;;
29294;SDS011;16305;48.566;8.846;2023-04-06T13:52:23;8.87;;;6.77;;
29294;SDS011;16305;48.566;8.846;2023-04-06T13:54:49;8.20;;;6.97;;
29294;SDS011;16305;48.566;8.846;2023-04-06T13:57:15;9.10;;;7.10;;
29294;SDS011;16305;48.566;8.846;2023-04-06T13:59:41;8.43;;;6.73;;
29294;SDS011;16305;48.566;8.846;2023-04-06T14:02:08;8.63;;;6.03;;
29294;SDS011;16305;48.566;8.846;2023-04-06T14:04:34;7.43;;;6.10;;
29294;SDS011;16305;48.566;8.846;2023-04-06T14:07:00;9.40;;;6.50;;
29294;SDS011;16305;48.566;8.846;2023-04-06T14:09:30;7.07;;;6.37;;
29294;SDS011;16305;48.566;8.846;2023-04-06T14:11:55;7.90;;;5.90;;
29294;SDS011;16305;48.566;8.846;2023-04-06T14:14:21;9.20;;;5.53;;
29294;SDS011;16305;48.566;8.846;2023-04-06T14:16:47;7.07;;;5.53;;
29294;SDS011;16305;48.566;8.846;2023-04-06T14:19:14;7.27;;;5.37;;
29294;SDS011;16305;48.566;8.846;2023-04-06T14:21:44;6.63;;;5.53;;
29294;SDS011;16305;48.566;8.846;2023-04-06T14:24:10;6.83;;;5.90;;
29294;SDS011;16305;48.566;8.846;2023-04-06T14:26:36;5.93;;;5.30;;
29294;SDS011;16305;48.566;8.846;2023-04-06T14:29:03;5.80;;;5.23;;
29294;SDS011;16305;48.566;8.846;2023-04-06T14:31:29;7.47;;;4.43;;